KSSI/SSI METAR and TAF weather

Enter ICAO airport designator
Station Type Date Time Source
KSSI METAR 2021/03/05 19:53 UTC NOAA

KSSI 051953Z AUTO 06013KT 10SM CLR 16/06 A3004 RMK AO2 SLP173 T01560056


Station Type Date Time Source
KSSI Decoded METAR 2021/03/05 19:53 UTC NOAA

BRUNSWICK MC KINNON AIRPORT , GA, United States (KSSI) 31-09N 081-23W 6M
Mar 05, 2021 - 02:53 PM EST / 2021.03.05 1953 UTC
Wind: from the ENE (060 degrees) at 15 MPH (13 KT):0
Visibility: 10 mile(s):0
Sky conditions: clear
Temperature: 60.1 F (15.6 C)
Dew Point: 42.1 F (5.6 C)
Relative Humidity: 51%
Pressure (altimeter): 30.04 in. Hg (1017 hPa)
ob: KSSI 051953Z AUTO 06013KT 10SM CLR 16/06 A3004 RMK AO2 SLP173 T01560056
cycle: 20

Station Type Date Time Source
KSSI TAF 2021/03/05 18:22 UTC NOAA

TAF KSSI 051720Z 0518/0618 04014G22KT P6SM SCT250
FM060100 05008KT P6SM BKN250
FM060900 04008KT P6SM FEW020 BKN100 OVC250
FM061200 03009KT P6SM VCSH OVC050
FM061500 04012G18KT P6SM -SHRA OVC030

Example: see airport list